Terminal Aerodrome Forecast
Issued by NWS

Home | Current Version | Previous Version | Graphics & Text | Print | Product List | Glossary On
Versions: 1 2 3 4 5 6 7 8 9 10 11 12 13 14 15 16 17 18 19 20 21
703
FTUS41 KCLE 261730
TAFFDY
TAF
KFDY 261730Z 2618/2718 21014G22KT P6SM SKC
     FM270200 21010KT P6SM BKN090
     FM271000 20007KT P6SM OVC035=

USA.gov is the U.S. government's official web portal to all federal, state and local government web resources and services.